• Join FlightAware (Why Join?)
  • Login
  • US Flag 
08:22PM EST


 

Airport Tracker/Info


-or-


 

Live Flight TrackerFlight Track Log ✈ AAL994 ✈ 12-Dec-2013 ✈ MNMG / MGA - KMIA

Flight Track Log - Related Links

Times and Time Zones

All times are in EST time to prevent confusion due to time zone crossing. See the AAL994 flight status page for this flight to view local times or setup timezone preferences in your user account.

Time Position Orientation Groundspeed Altitude Reporting Facility
EST Latitude Longitude Course Direction KTS MPH feet Rate Location/Type
09:24AM 12.3564 -86.0830 21° North  Level FlightAware Approximate
09:25AM 12.4638 -86.0403 21° North  Level FlightAware Approximate
09:26AM 12.5712 -85.9977 21° North  Level FlightAware Approximate
09:27AM 12.6786 -85.9549 21° North  Level FlightAware Approximate
09:28AM 12.7860 -85.9122 21° North  Level FlightAware Approximate
09:29AM 12.8934 -85.8694 21° North  Level FlightAware Approximate
09:30AM 13.0008 -85.8266 21° North  Level FlightAware Approximate
09:31AM 13.1082 -85.7837 21° North  Level FlightAware Approximate
09:32AM 13.2156 -85.7408 21° North  Level FlightAware Approximate
09:33AM 13.3229 -85.6979 21° North  Level FlightAware Approximate
09:34AM 13.4303 -85.6549 21° North  Level FlightAware Approximate
09:35AM 13.5376 -85.6118 21° North  Level FlightAware Approximate
09:36AM 13.6449 -85.5686 21° North  Level Estimated
09:37AM 13.7523 -85.5256 21° North  Level FlightAware Approximate
09:38AM 13.8597 -85.4826 21° North  Level FlightAware Approximate
09:39AM 13.9670 -85.4396 21° North  Level FlightAware Approximate
09:40AM 14.0744 -85.3964 21° North  Level FlightAware Approximate
09:41AM 14.1818 -85.3533 21° North  Level FlightAware Approximate
09:42AM 14.2891 -85.3101 21° North  Level FlightAware Approximate
09:43AM 14.3981 -85.2662 21° North  Level FlightAware Approximate
09:44AM 14.5071 -85.2223 21° North  Level FlightAware Approximate
09:45AM 14.6161 -85.1783 21° North  Level FlightAware Approximate
09:46AM 14.7251 -85.1343 21° North  Level FlightAware Approximate
09:47AM 14.8340 -85.0899 21° North  Level Estimated
09:48AM 14.9431 -85.0463 21° North  Level FlightAware Approximate
09:49AM 15.0523 -85.0027 21° North  Level FlightAware Approximate
09:50AM 15.1615 -84.9591 21° North  Level FlightAware Approximate
09:51AM 15.2706 -84.9154 21° North  Level FlightAware Approximate
09:52AM 15.3798 -84.8717 21° North  Level FlightAware Approximate
09:53AM 15.4889 -84.8279 21° North  Level FlightAware Approximate
09:54AM 15.5981 -84.7841 21° North  Level FlightAware Approximate
09:55AM 15.7072 -84.7402 21° North  Level FlightAware Approximate
09:56AM 15.8163 -84.6963 21° North  Level FlightAware Approximate
09:57AM 15.9255 -84.6524 21° North  Level FlightAware Approximate
09:58AM 16.0345 -84.6084 21° North  Level FlightAware Approximate
09:59AM 16.1436 -84.5643 21° North  Level FlightAware Approximate
10:00AM 16.2527 -84.5202 21° North  Level FlightAware Approximate
10:01AM 16.3618 -84.4761 21° North  Level FlightAware Approximate
10:02AM 16.4709 -84.4319 21° North  Level FlightAware Approximate
10:03AM 16.5799 -84.3876 21° North  Level FlightAware Approximate
10:04AM 16.6890 -84.3433 21° North  Level FlightAware Approximate
10:05AM 16.7972 -84.2993 21° North  Level FlightAware Approximate
10:06AM 16.9049 -84.2542 21° North  Level Estimated
10:07AM 17.0131 -84.2101 21° North  Level FlightAware Approximate
10:08AM 17.1213 -84.1660 21° North  Level FlightAware Approximate
10:09AM 17.2295 -84.1219 21° North  Level FlightAware Approximate
10:10AM 17.3376 -84.0777 21° North  Level FlightAware Approximate
10:11AM 17.4458 -84.0334 21° North  Level FlightAware Approximate
10:12AM 17.5539 -83.9891 21° North  Level FlightAware Approximate
10:13AM 17.6621 -83.9447 21° North  Level FlightAware Approximate
10:14AM 17.7702 -83.9003 21° North  Level FlightAware Approximate
10:15AM 17.8783 -83.8558 21° North  Level FlightAware Approximate
10:16AM 17.9865 -83.8113 21° North  Level FlightAware Approximate
10:17AM 18.0945 -83.7667 21° North  Level FlightAware Approximate
10:18AM 18.2026 -83.7221 21° North  Level FlightAware Approximate
10:19AM 18.3107 -83.6774 21° North  Level FlightAware Approximate
10:20AM 18.4188 -83.6327 21° North  Level FlightAware Approximate
10:21AM 18.5268 -83.5879 21° North  Level FlightAware Approximate
10:22AM 18.6349 -83.5430 21° North  Level FlightAware Approximate
10:23AM 18.7429 -83.4981 21° North  Level FlightAware Approximate
10:24AM 18.8509 -83.4531 22° Northeast  Level FlightAware Approximate
10:25AM 18.9589 -83.4081 22° Northeast  Level FlightAware Approximate
10:26AM 19.0669 -83.3630 22° Northeast  Level FlightAware Approximate
10:27AM 19.1749 -83.3178 22° Northeast  Level FlightAware Approximate
10:28AM 19.2829 -83.2726 22° Northeast  Level FlightAware Approximate
10:29AM 19.3909 -83.2273 22° Northeast  Level FlightAware Approximate
10:30AM 19.4988 -83.1820 22° Northeast  Level FlightAware Approximate
10:31AM 19.6061 -83.1350 22° Northeast  Level Estimated
10:32AM 19.7140 -83.0894 22° Northeast  Level FlightAware Approximate
10:33AM 19.8219 -83.0438 22° Northeast  Level FlightAware Approximate
10:34AM 19.9298 -82.9981 22° Northeast  Level FlightAware Approximate
10:35AM 20.0376 -82.9523 22° Northeast  Level FlightAware Approximate
10:36AM 20.1448 -82.9049 22° Northeast  Level Estimated
10:37AM 20.2527 -82.8590 22° Northeast  Level FlightAware Approximate
10:38AM 20.3605 -82.8130 22° Northeast  Level FlightAware Approximate
10:39AM 20.4683 -82.7670 22° Northeast  Level FlightAware Approximate
10:40AM 20.5760 -82.7209 22° Northeast  Level FlightAware Approximate
10:41AM 20.6838 -82.6747 22° Northeast  Level FlightAware Approximate
10:42AM 20.7916 -82.6284 22° Northeast  Level FlightAware Approximate
10:43AM 20.8993 -82.5822 22° Northeast  Level FlightAware Approximate
10:44AM 21.0070 -82.5358 22° Northeast  Level FlightAware Approximate
10:45AM 21.1148 -82.4893 22° Northeast  Level FlightAware Approximate
10:46AM 21.2225 -82.4428 22° Northeast  Level FlightAware Approximate
10:47AM 21.3302 -82.3963 22° Northeast  Level FlightAware Approximate
10:48AM 21.4379 -82.3496 22° Northeast  Level FlightAware Approximate
10:49AM 21.5455 -82.3029 22° Northeast  Level FlightAware Approximate
10:50AM 21.6532 -82.2561 22° Northeast  Level FlightAware Approximate
10:51AM 21.7608 -82.2093 22° Northeast  Level FlightAware Approximate
10:52AM 21.8685 -82.1624 22° Northeast  Level FlightAware Approximate
10:53AM 21.9761 -82.1154 22° Northeast  Level FlightAware Approximate
10:54AM 22.0837 -82.0683 22° Northeast  Level FlightAware Approximate
10:55AM 22.1913 -82.0212 22° Northeast  Level FlightAware Approximate
10:56AM 22.2988 -81.9740 22° Northeast  Level FlightAware Approximate
10:57AM 22.4064 -81.9267 22° Northeast  Level FlightAware Approximate
10:58AM 22.5140 -81.8785 22° Northeast  Level FlightAware Approximate
10:59AM 22.6216 -81.8302 23° Northeast  Level FlightAware Approximate
10:59AM 23.1775 -81.4164 23° Northeast 466 536 33,900  Level Miami Center
11:00AM 22.7291 -81.7819 23° Northeast  Level FlightAware Approximate
11:00AM 23.3017 -81.3867 12° North 466 536 34,000  Level Miami Center
11:01AM 22.8367 -81.7334 23° Northeast  Level FlightAware Approximate
11:01AM 23.4236 -81.3594 12° North 454 522 33,900  Level Miami Center
11:02AM 22.9443 -81.6849 23° Northeast  Level FlightAware Approximate
11:02AM 23.5456 -81.3297 13° North 448 516 34,000  Level Miami Center
11:03AM 23.0519 -81.6363 23° Northeast  Level FlightAware Approximate
11:03AM 23.6697 -81.2978 13° North 448 516 34,000  Level Miami Center
11:04AM 23.7833 -81.2700 13° North 453 521 34,000 -60 Level Miami Center
11:05AM 23.9200 -81.2383 12° North 453 521 33,900 -120 Descending Miami Center
11:06AM 24.0464 -81.2064 13° North 453 521 33,800 -540 Descending Miami Center
11:07AM 24.1744 -81.1792 11° North 453 521 32,900 -1,200 Descending Miami Center
11:08AM 24.3006 -81.1561 North 453 521 31,500 -1,320 Descending Miami Center
11:09AM 24.4286 -81.1331 North 453 521 30,300 -1,200 Descending Miami Center
11:10AM 24.5544 -81.1078 10° North 453 521 29,200 -1,800 Descending Miami Center
11:11AM 24.6828 -81.0825 10° North 453 521 26,800 -2,520 Descending Miami Center
11:12AM 24.8067 -81.0569 11° North 453 521 24,200 -2,520 Descending Miami Center
11:13AM 24.9264 -81.0336 10° North 448 516 21,800 -2,400 Descending Miami Center
11:14AM 25.0419 -81.0100 10° North 435 501 19,400 -2,220 Descending Miami Center
11:15AM 25.1511 -80.9883 10° North 418 481 17,400 -2,340 Descending Miami Center
11:16AM 25.2583 -80.9667 10° North 403 464 14,800 -2,460 Descending Miami Center
11:17AM 25.3633 -80.9472 North 377 434 12,500 -2,160 Descending Miami Center
11:18AM 25.4597 -80.9275 10° North 365 420 10,500 -1,440 Descending Miami Center
11:19AM 25.5081 -80.9175 11° North 342 394 10,300 -540 Descending Miami Center
11:19AM 25.5483 -80.9053 15° North 345 397 10,000 -660 Descending Miami Center
11:20AM 25.5747 -80.8553 60° Northeast 279 321 9,600 -720 Descending Miami Center
11:20AM 25.5919 -80.8375 43° Northeast 280 322 9,300 -540 Descending Miami Center
11:21AM 25.6358 -80.8367 North 243 280 9,100 -540 Descending Miami Center
11:21AM 25.6628 -80.8375 358° North 243 280 8,800 -900 Descending Miami Center
11:22AM 25.7086 -80.8414 356° North 232 267 8,100 -840 Descending Miami Center
11:22AM 25.7214 -80.8372 16° North 237 273 8,000 -840 Descending Miami Center
11:23AM 25.7494 -80.7967 52° Northeast 226 260 7,300 -840 Descending Miami Center
11:23AM 25.7603 -80.7878 36° Northeast 200 230 7,200 -780 Descending Miami Center
11:24AM 25.7617 -80.7347 88° East 190 219 6,500 -720 Descending Miami Center
11:24AM 25.7703 -80.7281 35° Northeast 185 213 6,500 -1,140 Level Miami Center
11:25AM 25.7672 -80.6819 94° East 187 215 5,500 -1,200 Descending Miami Center
11:25AM 25.7717 -80.6683 70° East 178 205 5,300 -1,020 Descending Miami Center
11:26AM 25.7708 -80.6244 91° East 187 215 4,500 -1,020 Descending Miami Center
11:26AM 25.7733 -80.6106 79° East 178 205 4,300 -1,080 Descending Miami Center
11:27AM 25.7703 -80.5597 94° East 182 209 3,300 -780 Descending Miami Center
11:28AM 25.7758 -80.5092 83° East 180 207 3,000 -480 Descending Miami Center
11:29AM 25.7772 -80.4539 88° East 182 209 2,400 -780 Descending Miami Center
11:30AM 25.7806 -80.4031 86° East 177 204 1,600 -900 Descending Miami Center
11:31AM 25.7817 -80.3547 89° East 149 171 700 -900 Descending Miami Center